Time;durP1;ratioP1;P1;durP2;ratioP2;P2;SDS_P1;SDS_P2;PMS_P1;PMS_P2;Temp;Humidity;BMP_temperature;BMP_pressure;BME280_temperature;BME280_humidity;BME280_pressure;Samples;Min_cycle;Max_cycle;Signal;HPM_P1;HPM_P2
2022/09/15 00:02:16;;;;;;;5.10;2.70;;;;;;;;;;5035692;28;20210;-69
2022/09/15 00:04:42;;;;;;;3.70;2.70;;;;;;;;;;5035226;28;20615;-69
2022/09/15 00:07:09;;;;;;;3.90;2.80;;;;;;;;;;5035598;28;20217;-70
2022/09/15 00:09:36;;;;;;;3.13;2.70;;;;;;;;;;5035408;28;20250;-69
2022/09/15 00:12:02;;;;;;;2.90;2.67;;;;;;;;;;5036018;28;20221;-70
2022/09/15 00:14:28;;;;;;;4.37;3.13;;;;;;;;;;5035437;28;20225;-69
2022/09/15 00:16:55;;;;;;;4.10;2.87;;;;;;;;;;5035412;28;20213;-69
2022/09/15 00:19:21;;;;;;;4.17;2.90;;;;;;;;;;5035222;28;20226;-69
2022/09/15 00:21:47;;;;;;;6.13;2.80;;;;;;;;;;5035821;28;20217;-69
2022/09/15 00:24:13;;;;;;;6.37;2.60;;;;;;;;;;5035195;28;20225;-69
2022/09/15 00:26:40;;;;;;;4.97;2.30;;;;;;;;;;5035170;28;20216;-69
2022/09/15 00:29:06;;;;;;;3.77;2.27;;;;;;;;;;5034760;28;20210;-69
2022/09/15 00:31:32;;;;;;;2.43;2.10;;;;;;;;;;5035099;28;20265;-69
2022/09/15 00:34:01;;;;;;;3.37;2.20;;;;;;;;;;5035045;28;20216;-69
2022/09/15 00:36:27;;;;;;;4.23;2.10;;;;;;;;;;5035035;28;20546;-69
2022/09/15 00:38:54;;;;;;;2.20;2.00;;;;;;;;;;5034932;28;20210;-69
2022/09/15 00:41:21;;;;;;;3.47;2.30;;;;;;;;;;5034900;28;20230;-69
2022/09/15 00:43:53;;;;;;;4.47;1.80;;;;;;;;;;5034513;28;20229;-69
2022/09/15 00:46:24;;;;;;;2.43;2.00;;;;;;;;;;5034698;28;20210;-69
2022/09/15 00:48:52;;;;;;;3.13;2.07;;;;;;;;;;5034245;28;20194;-69
2022/09/15 00:51:23;;;;;;;3.50;2.37;;;;;;;;;;5034367;28;20333;-69
2022/09/15 00:53:50;;;;;;;2.80;2.03;;;;;;;;;;5033531;28;20190;-69
2022/09/15 00:56:17;;;;;;;3.20;2.20;;;;;;;;;;5034348;28;20673;-69
2022/09/15 00:58:46;;;;;;;2.03;1.80;;;;;;;;;;5033110;28;20201;-69
2022/09/15 01:01:14;;;;;;;3.10;2.20;;;;;;;;;;5034452;28;20236;-69
2022/09/15 01:03:40;;;;;;;3.23;2.23;;;;;;;;;;5034421;28;20226;-69
2022/09/15 01:06:19;;;;;;;3.67;2.10;;;;;;;;;;5034083;28;20217;-69
2022/09/15 01:08:49;;;;;;;2.20;1.83;;;;;;;;;;5034191;28;20549;-69
2022/09/15 01:11:16;;;;;;;2.47;1.73;;;;;;;;;;5033058;28;20229;-69
2022/09/15 01:13:43;;;;;;;1.83;1.40;;;;;;;;;;5034335;28;20549;-69
2022/09/15 01:16:15;;;;;;;1.93;1.70;;;;;;;;;;5034001;28;20214;-69
2022/09/15 01:18:58;;;;;;;2.43;1.53;;;;;;;;;;5033931;28;20669;-69
2022/09/15 01:21:47;;;;;;;4.60;1.63;;;;;;;;;;5034178;28;20229;-69
2022/09/15 01:24:13;;;;;;;3.40;1.40;;;;;;;;;;5032910;28;20577;-69
2022/09/15 01:26:59;;;;;;;1.73;1.47;;;;;;;;;;5034090;28;20205;-69
2022/09/15 01:29:47;;;;;;;2.63;1.70;;;;;;;;;;5033941;28;20230;-70
2022/09/15 01:35:13;;;;;;;3.57;1.90;;;;;;;;;;5033766;28;20178;-69
2022/09/15 01:37:42;;;;;;;1.80;1.70;;;;;;;;;;5033998;28;20197;-69
2022/09/15 01:40:09;;;;;;;2.57;1.63;;;;;;;;;;5033847;28;20309;-69
2022/09/15 01:42:36;;;;;;;3.13;1.80;;;;;;;;;;5034384;28;20210;-69
2022/09/15 01:45:12;;;;;;;2.87;1.90;;;;;;;;;;5032268;28;20600;-69
2022/09/15 01:47:39;;;;;;;2.23;1.83;;;;;;;;;;5033777;28;20286;-69
2022/09/15 01:50:09;;;;;;;2.43;1.60;;;;;;;;;;5033267;28;20240;-69
2022/09/15 01:52:37;;;;;;;3.10;1.50;;;;;;;;;;5033443;28;20669;-69
2022/09/15 01:55:09;;;;;;;4.47;2.10;;;;;;;;;;5033701;28;20210;-69
2022/09/15 01:57:36;;;;;;;1.87;1.60;;;;;;;;;;5033299;28;20206;-69
2022/09/15 02:00:03;;;;;;;3.27;1.53;;;;;;;;;;5033113;28;20709;-70
2022/09/15 02:02:32;;;;;;;2.30;1.53;;;;;;;;;;5033611;28;20206;-69
2022/09/15 02:04:59;;;;;;;1.63;1.53;;;;;;;;;;5033491;28;20234;-69
2022/09/15 02:07:34;;;;;;;2.70;1.53;;;;;;;;;;5033456;28;20206;-69
2022/09/15 02:10:24;;;;;;;1.63;1.43;;;;;;;;;;5033469;28;20631;-69
2022/09/15 02:12:50;;;;;;;2.70;1.50;;;;;;;;;;5033210;28;20186;-69
2022/09/15 02:15:37;;;;;;;1.70;1.50;;;;;;;;;;5033156;28;20210;-69
2022/09/15 02:18:07;;;;;;;1.73;1.60;;;;;;;;;;5032031;28;20186;-70
2022/09/15 02:20:37;;;;;;;1.40;1.30;;;;;;;;;;5032205;28;20237;-69
2022/09/15 02:23:17;;;;;;;2.43;1.40;;;;;;;;;;5034212;28;20206;-69
2022/09/15 02:25:46;;;;;;;2.40;1.43;;;;;;;;;;5033440;28;20217;-69
2022/09/15 02:28:14;;;;;;;2.67;1.30;;;;;;;;;;5031895;28;20201;-70
2022/09/15 02:30:42;;;;;;;2.57;1.53;;;;;;;;;;5033231;28;20221;-69
2022/09/15 02:33:11;;;;;;;3.20;1.60;;;;;;;;;;5033306;28;20206;-69
2022/09/15 02:35:38;;;;;;;3.07;1.70;;;;;;;;;;5033287;28;20202;-70
2022/09/15 02:38:07;;;;;;;3.60;1.50;;;;;;;;;;5032039;28;20209;-69
2022/09/15 02:40:34;;;;;;;1.47;1.37;;;;;;;;;;5031675;28;20735;-70
2022/09/15 02:43:01;;;;;;;1.93;1.40;;;;;;;;;;5032852;28;20212;-69
2022/09/15 02:45:29;;;;;;;2.77;1.47;;;;;;;;;;5033112;28;20237;-69
2022/09/15 02:47:56;;;;;;;1.30;1.20;;;;;;;;;;5032923;28;20565;-69
2022/09/15 02:50:24;;;;;;;2.23;1.30;;;;;;;;;;5032660;28;20265;-69
2022/09/15 02:52:51;;;;;;;1.33;1.20;;;;;;;;;;5033102;28;20202;-69
2022/09/15 02:55:17;;;;;;;1.20;1.10;;;;;;;;;;5033038;28;20201;-69
2022/09/15 02:57:43;;;;;;;2.77;1.50;;;;;;;;;;5032995;28;20206;-69
2022/09/15 03:00:13;;;;;;;2.30;1.00;;;;;;;;;;5032927;28;20222;-69
2022/09/15 03:02:40;;;;;;;2.50;1.40;;;;;;;;;;5032515;28;20217;-69
2022/09/15 03:05:07;;;;;;;1.00;1.00;;;;;;;;;;5032418;28;20588;-69
2022/09/15 03:07:33;;;;;;;1.47;1.30;;;;;;;;;;5032588;28;20217;-69
2022/09/15 03:09:59;;;;;;;1.70;1.10;;;;;;;;;;5032644;28;20237;-69
2022/09/15 03:12:26;;;;;;;1.30;1.20;;;;;;;;;;5036513;28;20213;-69
2022/09/15 03:14:52;;;;;;;3.10;1.30;;;;;;;;;;5036236;28;20213;-69
2022/09/15 03:17:18;;;;;;;1.93;1.10;;;;;;;;;;5036136;28;20673;-69
2022/09/15 03:19:45;;;;;;;1.30;1.20;;;;;;;;;;5036341;28;20226;-69
2022/09/15 03:22:11;;;;;;;2.77;1.27;;;;;;;;;;5036310;28;20210;-69
2022/09/15 03:24:38;;;;;;;1.33;1.17;;;;;;;;;;5036877;28;20233;-69
2022/09/15 03:27:05;;;;;;;3.17;1.30;;;;;;;;;;5036013;28;20669;-69
2022/09/15 03:29:31;;;;;;;2.70;1.27;;;;;;;;;;5035831;28;20708;-69
2022/09/15 03:31:57;;;;;;;3.67;1.50;;;;;;;;;;5036022;28;20205;-69
2022/09/15 03:34:23;;;;;;;2.03;1.17;;;;;;;;;;5035812;28;20202;-69
2022/09/15 03:36:50;;;;;;;1.50;1.40;;;;;;;;;;5035459;28;20692;-69
2022/09/15 03:39:16;;;;;;;2.40;1.23;;;;;;;;;;5035899;28;20212;-69
2022/09/15 03:41:42;;;;;;;3.63;1.50;;;;;;;;;;5035564;28;20214;-69
2022/09/15 03:44:08;;;;;;;3.37;1.57;;;;;;;;;;5035382;28;20222;-69
2022/09/15 03:46:35;;;;;;;2.60;1.50;;;;;;;;;;5035414;28;20206;-69
2022/09/15 03:49:01;;;;;;;1.40;1.30;;;;;;;;;;5036530;28;20210;-69
2022/09/15 03:51:27;;;;;;;1.27;1.20;;;;;;;;;;5035374;28;20209;-69
2022/09/15 03:53:55;;;;;;;1.60;1.47;;;;;;;;;;5035691;28;20210;-69
2022/09/15 03:56:21;;;;;;;3.00;1.17;;;;;;;;;;5035746;28;20212;-69
2022/09/15 03:58:47;;;;;;;2.33;1.20;;;;;;;;;;5035618;28;20201;-69
2022/09/15 04:01:13;;;;;;;1.60;1.50;;;;;;;;;;5035823;28;20581;-69
2022/09/15 04:03:40;;;;;;;3.60;1.27;;;;;;;;;;5035416;28;20229;-69
2022/09/15 04:06:07;;;;;;;1.87;1.57;;;;;;;;;;5035053;28;20222;-69
2022/09/15 04:08:33;;;;;;;2.67;1.47;;;;;;;;;;5035464;28;20202;-69
2022/09/15 04:11:03;;;;;;;1.60;1.10;;;;;;;;;;5035366;28;20226;-69
2022/09/15 04:13:29;;;;;;;1.53;1.27;;;;;;;;;;5035618;28;20241;-69
2022/09/15 04:16:00;;;;;;;1.30;1.20;;;;;;;;;;5035306;28;20202;-69
2022/09/15 04:18:27;;;;;;;1.97;1.30;;;;;;;;;;5035157;28;20546;-69
2022/09/15 04:20:53;;;;;;;1.30;1.20;;;;;;;;;;5035115;28;20301;-71
2022/09/15 04:23:20;;;;;;;1.53;1.30;;;;;;;;;;5033916;28;20209;-71
2022/09/15 04:25:56;;;;;;;2.10;1.20;;;;;;;;;;5034971;28;20232;-71
2022/09/15 04:28:23;;;;;;;3.40;1.40;;;;;;;;;;5034993;28;20213;-71
2022/09/15 04:30:49;;;;;;;4.00;1.30;;;;;;;;;;5034921;28;20230;-71
2022/09/15 04:33:16;;;;;;;1.87;1.10;;;;;;;;;;5034851;28;20209;-71
2022/09/15 04:35:42;;;;;;;3.20;1.20;;;;;;;;;;5034772;28;20208;-71
2022/09/15 04:38:09;;;;;;;3.73;1.30;;;;;;;;;;5034664;28;20213;-71
2022/09/15 04:40:35;;;;;;;1.90;1.30;;;;;;;;;;5034556;28;20589;-71
2022/09/15 04:43:01;;;;;;;1.83;1.00;;;;;;;;;;5034568;28;20206;-71
2022/09/15 04:45:28;;;;;;;2.73;1.30;;;;;;;;;;5034620;28;20237;-71
2022/09/15 04:47:54;;;;;;;4.10;1.30;;;;;;;;;;5035151;28;20216;-69
2022/09/15 04:50:20;;;;;;;1.90;1.27;;;;;;;;;;5034016;28;20233;-69
2022/09/15 04:52:47;;;;;;;2.13;1.37;;;;;;;;;;5034331;28;20206;-69
2022/09/15 04:55:13;;;;;;;3.30;1.53;;;;;;;;;;5034361;28;20202;-69
2022/09/15 04:57:39;;;;;;;3.20;1.40;;;;;;;;;;5034313;28;20242;-68
2022/09/15 05:00:06;;;;;;;1.47;1.13;;;;;;;;;;5033898;28;20225;-68
2022/09/15 05:02:32;;;;;;;1.80;1.20;;;;;;;;;;5034425;28;20210;-69
2022/09/15 05:04:59;;;;;;;1.67;1.30;;;;;;;;;;5034101;28;20259;-68
2022/09/15 05:07:25;;;;;;;2.60;1.13;;;;;;;;;;5033975;28;20206;-69
2022/09/15 05:09:52;;;;;;;3.63;1.30;;;;;;;;;;5033929;28;20256;-69
2022/09/15 05:12:18;;;;;;;2.00;1.40;;;;;;;;;;5033735;28;20673;-71
2022/09/15 05:14:44;;;;;;;1.50;1.40;;;;;;;;;;5033607;28;20213;-71
2022/09/15 05:17:10;;;;;;;2.57;1.30;;;;;;;;;;5033449;28;20314;-71
2022/09/15 05:19:37;;;;;;;2.70;1.60;;;;;;;;;;5033627;28;20228;-71
2022/09/15 05:22:03;;;;;;;2.30;1.53;;;;;;;;;;5033396;28;20206;-69
2022/09/15 05:24:29;;;;;;;3.47;1.53;;;;;;;;;;5033152;28;20206;-71
2022/09/15 05:26:56;;;;;;;4.13;1.67;;;;;;;;;;5033422;28;20688;-71
2022/09/15 05:29:22;;;;;;;2.70;1.53;;;;;;;;;;5033292;28;20236;-71
2022/09/15 05:31:48;;;;;;;2.07;1.60;;;;;;;;;;5032880;28;20210;-70
2022/09/15 05:34:15;;;;;;;2.10;1.63;;;;;;;;;;5032974;28;20209;-71
2022/09/15 05:36:41;;;;;;;1.70;1.30;;;;;;;;;;5033582;28;20222;-70
2022/09/15 05:39:07;;;;;;;3.30;1.40;;;;;;;;;;5033768;28;20210;-71
2022/09/15 05:41:34;;;;;;;2.20;1.63;;;;;;;;;;5033590;28;20683;-71
2022/09/15 05:44:00;;;;;;;2.83;1.60;;;;;;;;;;5033235;28;20214;-71
2022/09/15 05:46:27;;;;;;;3.43;1.80;;;;;;;;;;5033265;28;20237;-71
2022/09/15 05:48:55;;;;;;;2.80;1.50;;;;;;;;;;5033128;28;20233;-71
2022/09/15 05:51:21;;;;;;;2.17;1.40;;;;;;;;;;5032808;28;20260;-71
2022/09/15 05:53:48;;;;;;;1.60;1.30;;;;;;;;;;5033148;28;20210;-71
2022/09/15 05:56:15;;;;;;;2.23;1.53;;;;;;;;;;5033347;28;20251;-71
2022/09/15 05:58:42;;;;;;;1.63;1.53;;;;;;;;;;5033504;28;20649;-71
2022/09/15 06:01:35;;;;;;;1.83;1.53;;;;;;;;;;5033201;28;20225;-71
2022/09/15 06:04:01;;;;;;;3.13;1.30;;;;;;;;;;5030028;28;20228;-71
2022/09/15 06:06:28;;;;;;;2.20;1.33;;;;;;;;;;5033026;28;20229;-71
2022/09/15 06:08:56;;;;;;;3.07;1.20;;;;;;;;;;5033096;28;20206;-71
2022/09/15 06:11:23;;;;;;;1.70;1.33;;;;;;;;;;5033437;28;20713;-71
2022/09/15 06:13:50;;;;;;;2.40;1.47;;;;;;;;;;5032707;28;20210;-71
2022/09/15 06:16:18;;;;;;;4.00;1.50;;;;;;;;;;5032583;28;20750;-71
2022/09/15 06:18:44;;;;;;;1.63;1.23;;;;;;;;;;5032757;28;20582;-71
2022/09/15 06:21:12;;;;;;;1.77;1.20;;;;;;;;;;5032692;28;20229;-71
2022/09/15 06:23:38;;;;;;;3.07;1.33;;;;;;;;;;5032729;28;20209;-71
2022/09/15 06:26:08;;;;;;;3.27;1.30;;;;;;;;;;5032769;28;20226;-71
2022/09/15 06:28:34;;;;;;;1.10;1.00;;;;;;;;;;5032800;28;20212;-71
2022/09/15 06:31:00;;;;;;;1.87;1.20;;;;;;;;;;5032287;28;20245;-71
2022/09/15 06:33:27;;;;;;;4.50;1.30;;;;;;;;;;5032723;28;20212;-71
2022/09/15 06:35:53;;;;;;;2.30;1.00;;;;;;;;;;5032920;28;20206;-71
2022/09/15 06:38:19;;;;;;;5.97;1.73;;;;;;;;;;5033033;28;20300;-71
2022/09/15 06:40:53;;;;;;;2.87;1.37;;;;;;;;;;5033386;28;20226;-71
2022/09/15 06:43:20;;;;;;;1.80;1.37;;;;;;;;;;5032918;28;20193;-71
2022/09/15 06:45:46;;;;;;;1.87;1.40;;;;;;;;;;5034384;28;20230;-71
2022/09/15 06:48:12;;;;;;;7.47;2.20;;;;;;;;;;5036907;28;20217;-71
2022/09/15 06:50:39;;;;;;;3.13;1.43;;;;;;;;;;5037054;28;20315;-70
2022/09/15 06:53:05;;;;;;;3.63;1.67;;;;;;;;;;5036822;28;20202;-70
2022/09/15 06:55:32;;;;;;;2.73;1.30;;;;;;;;;;5036834;28;20223;-70
2022/09/15 06:57:58;;;;;;;3.87;1.40;;;;;;;;;;5036381;28;20739;-70
2022/09/15 07:00:25;;;;;;;1.60;1.20;;;;;;;;;;5036620;28;20233;-70
2022/09/15 07:02:52;;;;;;;2.43;1.20;;;;;;;;;;5036637;28;20202;-70
2022/09/15 07:05:18;;;;;;;2.90;1.40;;;;;;;;;;5036513;28;20229;-70
2022/09/15 07:07:45;;;;;;;1.50;1.10;;;;;;;;;;5036586;28;20213;-71
2022/09/15 07:10:11;;;;;;;1.83;1.10;;;;;;;;;;5036227;28;20283;-71
2022/09/15 07:12:37;;;;;;;3.20;1.60;;;;;;;;;;5036619;28;20225;-71
2022/09/15 07:15:04;;;;;;;4.40;1.80;;;;;;;;;;5036460;28;20202;-71
2022/09/15 07:17:30;;;;;;;2.03;1.30;;;;;;;;;;5036373;28;20221;-71
2022/09/15 07:19:56;;;;;;;3.20;1.30;;;;;;;;;;5036316;28;20222;-71
2022/09/15 07:22:24;;;;;;;2.33;1.67;;;;;;;;;;5036251;28;20202;-71
2022/09/15 07:24:50;;;;;;;2.27;1.30;;;;;;;;;;5036059;28;20217;-71
2022/09/15 07:27:16;;;;;;;3.70;1.47;;;;;;;;;;5036247;28;20206;-71
2022/09/15 07:29:42;;;;;;;3.70;1.30;;;;;;;;;;5036114;28;20240;-71
2022/09/15 07:32:09;;;;;;;3.23;1.30;;;;;;;;;;5036195;28;20217;-71
2022/09/15 07:34:35;;;;;;;2.03;1.13;;;;;;;;;;5035997;28;20202;-70
2022/09/15 07:37:01;;;;;;;1.50;1.20;;;;;;;;;;5036101;28;20202;-71
2022/09/15 07:39:27;;;;;;;2.40;1.30;;;;;;;;;;5036075;28;20230;-71
2022/09/15 07:41:54;;;;;;;1.83;1.37;;;;;;;;;;5035987;28;20205;-70
2022/09/15 07:44:20;;;;;;;1.50;1.07;;;;;;;;;;5035901;28;20212;-70
2022/09/15 07:46:46;;;;;;;1.30;1.20;;;;;;;;;;5035630;28;20226;-70
2022/09/15 07:49:12;;;;;;;4.40;1.37;;;;;;;;;;5035582;28;20209;-71
2022/09/15 07:51:39;;;;;;;3.13;1.60;;;;;;;;;;5035762;28;20201;-71
2022/09/15 07:54:05;;;;;;;2.37;1.20;;;;;;;;;;5035762;28;20209;-71
2022/09/15 07:56:32;;;;;;;6.27;2.57;;;;;;;;;;5035031;28;20201;-71
2022/09/15 07:58:58;;;;;;;1.83;1.50;;;;;;;;;;5035772;28;20256;-71
2022/09/15 08:01:24;;;;;;;1.60;1.30;;;;;;;;;;5035524;28;20225;-71
2022/09/15 08:03:51;;;;;;;3.00;1.23;;;;;;;;;;5035612;28;20206;-71
2022/09/15 08:06:19;;;;;;;1.40;1.30;;;;;;;;;;5035504;28;20236;-71
2022/09/15 08:08:46;;;;;;;3.50;1.40;;;;;;;;;;5036344;28;20216;-70
2022/09/15 08:11:15;;;;;;;1.40;1.10;;;;;;;;;;5035458;28;20228;-71
2022/09/15 08:13:41;;;;;;;1.53;1.00;;;;;;;;;;5035366;28;20218;-71
2022/09/15 08:16:09;;;;;;;3.20;1.20;;;;;;;;;;5035135;28;20198;-71
2022/09/15 08:18:35;;;;;;;1.20;1.10;;;;;;;;;;5034738;28;20210;-71
2022/09/15 08:21:05;;;;;;;1.63;1.10;;;;;;;;;;5035105;28;20229;-70
2022/09/15 08:23:32;;;;;;;1.70;0.90;;;;;;;;;;5035646;28;20213;-71
2022/09/15 08:25:58;;;;;;;1.70;0.83;;;;;;;;;;5035517;28;20580;-71
2022/09/15 08:28:24;;;;;;;0.90;0.83;;;;;;;;;;5035084;28;20210;-71
2022/09/15 08:30:58;;;;;;;1.13;0.90;;;;;;;;;;5034670;28;20324;-71
2022/09/15 08:33:24;;;;;;;1.13;1.03;;;;;;;;;;5035103;28;20248;-71
2022/09/15 08:35:51;;;;;;;1.20;1.10;;;;;;;;;;5034987;28;20205;-70
2022/09/15 08:38:17;;;;;;;1.63;1.20;;;;;;;;;;5034886;28;20216;-71
2022/09/15 08:40:44;;;;;;;1.30;0.90;;;;;;;;;;5034947;28;20226;-71
2022/09/15 08:43:18;;;;;;;2.93;1.00;;;;;;;;;;5034579;28;20677;-70
2022/09/15 08:45:49;;;;;;;2.47;1.10;;;;;;;;;;5034503;28;20250;-71
2022/09/15 08:48:16;;;;;;;1.50;1.40;;;;;;;;;;5034841;28;20213;-71
2022/09/15 08:50:47;;;;;;;2.70;1.13;;;;;;;;;;5034285;28;20716;-71
2022/09/15 08:53:15;;;;;;;2.20;1.37;;;;;;;;;;5034786;28;20206;-71
2022/09/15 08:55:51;;;;;;;2.27;1.10;;;;;;;;;;5034644;28;20210;-71
2022/09/15 08:58:25;;;;;;;1.57;1.40;;;;;;;;;;5034581;28;20221;-71
2022/09/15 09:00:57;;;;;;;3.40;1.30;;;;;;;;;;5034210;28;20670;-71
2022/09/15 09:03:43;;;;;;;3.77;1.07;;;;;;;;;;5033474;28;20190;-71
2022/09/15 09:06:19;;;;;;;1.60;0.80;;;;;;;;;;5034283;28;20226;-71
2022/09/15 09:08:45;;;;;;;1.30;1.00;;;;;;;;;;5033667;28;20269;-71
2022/09/15 09:11:11;;;;;;;0.87;0.83;;;;;;;;;;5034129;28;20232;-71
2022/09/15 09:13:43;;;;;;;1.07;1.00;;;;;;;;;;5034159;28;20202;-71
2022/09/15 09:16:38;;;;;;;1.47;1.00;;;;;;;;;;5033887;28;20629;-71
2022/09/15 09:19:16;;;;;;;0.97;0.77;;;;;;;;;;4980260;28;20582;-71
2022/09/15 09:21:46;;;;;;;0.60;0.60;;;;;;;;;;5033695;28;20217;-71
2022/09/15 09:24:17;;;;;;;0.50;0.50;;;;;;;;;;5032776;28;20202;-71
2022/09/15 09:26:46;;;;;;;0.70;0.70;;;;;;;;;;5033548;28;20324;-71
2022/09/15 09:29:17;;;;;;;0.77;0.70;;;;;;;;;;5033884;28;20213;-71
2022/09/15 09:31:45;;;;;;;1.07;0.50;;;;;;;;;;5033702;28;20209;-71
2022/09/15 09:34:20;;;;;;;2.20;0.80;;;;;;;;;;5033778;28;20210;-71
2022/09/15 09:36:58;;;;;;;3.10;0.90;;;;;;;;;;5033720;28;20205;-71
2022/09/15 09:39:25;;;;;;;0.50;0.50;;;;;;;;;;5033888;28;20226;-71
2022/09/15 09:41:51;;;;;;;1.30;0.60;;;;;;;;;;5033806;28;20221;-70
2022/09/15 09:44:19;;;;;;;2.57;0.63;;;;;;;;;;5034089;28;20256;-70
2022/09/15 09:46:46;;;;;;;2.40;0.63;;;;;;;;;;5033522;28;20225;-71
2022/09/15 09:49:22;;;;;;;0.70;0.67;;;;;;;;;;5033561;28;20264;-71
2022/09/15 09:51:57;;;;;;;0.83;0.70;;;;;;;;;;5033492;28;20556;-70
2022/09/15 09:54:26;;;;;;;0.97;0.87;;;;;;;;;;5033516;28;20278;-70
2022/09/15 09:56:53;;;;;;;4.60;1.00;;;;;;;;;;5033624;28;20612;-70
2022/09/15 09:59:38;;;;;;;2.13;0.87;;;;;;;;;;5033256;28;20669;-70
2022/09/15 10:02:24;;;;;;;2.10;0.90;;;;;;;;;;5033658;28;20574;-70
2022/09/15 10:05:04;;;;;;;0.70;0.70;;;;;;;;;;5033050;28;20376;-70
2022/09/15 10:07:32;;;;;;;1.20;0.70;;;;;;;;;;5033430;28;20222;-70
2022/09/15 10:09:59;;;;;;;0.80;0.70;;;;;;;;;;5032970;28;20230;-70
2022/09/15 10:12:30;;;;;;;2.07;0.90;;;;;;;;;;5032960;28;20201;-69
2022/09/15 10:14:59;;;;;;;0.93;0.80;;;;;;;;;;5033348;28;20256;-70
2022/09/15 10:17:42;;;;;;;2.50;0.80;;;;;;;;;;5032940;28;20205;-71
2022/09/15 10:20:31;;;;;;;1.30;0.80;;;;;;;;;;5035281;28;20235;-69
2022/09/15 10:23:04;;;;;;;1.53;0.90;;;;;;;;;;5037264;28;20190;-68
2022/09/15 10:25:32;;;;;;;2.40;1.37;;;;;;;;;;5037432;28;20206;-68
2022/09/15 10:28:02;;;;;;;2.43;1.83;;;;;;;;;;5037070;28;20689;-69
2022/09/15 10:30:28;;;;;;;4.93;2.30;;;;;;;;;;5037396;28;20229;-69
2022/09/15 10:32:54;;;;;;;3.30;2.90;;;;;;;;;;5036834;28;20206;-69
2022/09/15 10:35:21;;;;;;;3.40;2.57;;;;;;;;;;5037141;28;20232;-69
2022/09/15 10:37:53;;;;;;;2.90;2.23;;;;;;;;;;5037329;28;20197;-69
2022/09/15 10:40:32;;;;;;;2.87;2.67;;;;;;;;;;5037067;28;20229;-69
2022/09/15 10:43:03;;;;;;;3.97;3.00;;;;;;;;;;5037115;28;20205;-69
2022/09/15 10:45:35;;;;;;;4.83;3.50;;;;;;;;;;5036811;28;20197;-69
2022/09/15 10:48:20;;;;;;;5.07;3.47;;;;;;;;;;5036840;28;20677;-69
2022/09/15 10:50:53;;;;;;;5.17;3.70;;;;;;;;;;5036681;28;20299;-69
2022/09/15 10:53:22;;;;;;;5.73;4.17;;;;;;;;;;5036594;28;20746;-69
2022/09/15 10:55:54;;;;;;;5.90;4.50;;;;;;;;;;5036960;28;20201;-69
2022/09/15 10:58:20;;;;;;;4.50;4.10;;;;;;;;;;5036784;28;20206;-69
2022/09/15 11:00:51;;;;;;;4.93;3.70;;;;;;;;;;5036718;28;20576;-69
2022/09/15 11:03:40;;;;;;;6.20;3.87;;;;;;;;;;5036714;28;20201;-69
2022/09/15 11:06:06;;;;;;;5.27;3.90;;;;;;;;;;5035469;28;20572;-69
2022/09/15 11:08:45;;;;;;;4.57;4.07;;;;;;;;;;5036293;28;20210;-68
2022/09/15 11:11:30;;;;;;;5.77;4.73;;;;;;;;;;5036179;28;20234;-68
2022/09/15 11:14:19;;;;;;;5.40;4.07;;;;;;;;;;5036442;28;20205;-68
2022/09/15 11:16:58;;;;;;;5.47;4.57;;;;;;;;;;5036458;28;20195;-69
2022/09/15 11:19:43;;;;;;;7.77;4.80;;;;;;;;;;5036369;28;20236;-68
2022/09/15 11:22:29;;;;;;;6.63;5.00;;;;;;;;;;5036385;28;20228;-68
2022/09/15 11:24:55;;;;;;;9.07;6.10;;;;;;;;;;5036318;28;20197;-68
2022/09/15 11:27:39;;;;;;;6.47;5.13;;;;;;;;;;5035938;28;20230;-68
2022/09/15 11:30:20;;;;;;;6.10;4.53;;;;;;;;;;5035738;28;20237;-69
2022/09/15 11:32:48;;;;;;;8.60;4.70;;;;;;;;;;5035163;28;20210;-67
2022/09/15 11:35:30;;;;;;;6.30;4.63;;;;;;;;;;5035951;28;20212;-68
2022/09/15 11:38:03;;;;;;;6.03;4.70;;;;;;;;;;5035864;28;20297;-69
2022/09/15 11:40:37;;;;;;;7.83;5.10;;;;;;;;;;5035703;28;20236;-68
2022/09/15 11:43:13;;;;;;;6.63;4.67;;;;;;;;;;5035772;28;20214;-68
2022/09/15 11:45:43;;;;;;;7.80;4.57;;;;;;;;;;5035989;28;20197;-68
2022/09/15 11:48:14;;;;;;;4.33;3.93;;;;;;;;;;5035946;28;20236;-68
2022/09/15 11:50:44;;;;;;;7.17;5.20;;;;;;;;;;5035541;28;20237;-68
2022/09/15 11:53:17;;;;;;;8.67;6.00;;;;;;;;;;5034506;28;20229;-68
2022/09/15 11:56:03;;;;;;;9.73;6.30;;;;;;;;;;5033970;28;20613;-68
2022/09/15 11:58:33;;;;;;;6.57;5.80;;;;;;;;;;5024812;28;20214;-68
2022/09/15 12:00:59;;;;;;;8.47;5.10;;;;;;;;;;5035505;28;20274;-68
2022/09/15 12:03:34;;;;;;;8.50;5.43;;;;;;;;;;5035164;28;20217;-69
2022/09/15 12:06:05;;;;;;;7.00;5.00;;;;;;;;;;5035506;28;20209;-68
2022/09/15 12:08:32;;;;;;;7.07;5.17;;;;;;;;;;5035504;28;20600;-69
2022/09/15 12:10:59;;;;;;;7.00;4.10;;;;;;;;;;5035380;28;20315;-68
2022/09/15 12:13:26;;;;;;;5.63;4.57;;;;;;;;;;5035379;28;20213;-69
2022/09/15 12:15:53;;;;;;;6.10;4.47;;;;;;;;;;5035938;28;20205;-69
2022/09/15 12:18:24;;;;;;;10.93;5.10;;;;;;;;;;5035983;28;20270;-69
2022/09/15 12:20:55;;;;;;;7.60;4.30;;;;;;;;;;5035100;28;20226;-69
2022/09/15 12:23:28;;;;;;;7.13;5.10;;;;;;;;;;5034044;28;20213;-69
2022/09/15 12:26:13;;;;;;;6.97;4.27;;;;;;;;;;5035230;28;20210;-69
2022/09/15 12:28:55;;;;;;;5.73;4.43;;;;;;;;;;5035485;28;20201;-69
2022/09/15 12:31:25;;;;;;;6.07;3.77;;;;;;;;;;5034557;28;20712;-70
2022/09/15 12:33:52;;;;;;;4.43;3.43;;;;;;;;;;5034972;28;20213;-69
2022/09/15 12:36:32;;;;;;;4.83;3.90;;;;;;;;;;5035555;28;20214;-69
2022/09/15 12:38:59;;;;;;;5.90;3.60;;;;;;;;;;5034871;28;20209;-69
2022/09/15 12:41:26;;;;;;;6.07;3.80;;;;;;;;;;5035566;28;20210;-69
2022/09/15 12:43:54;;;;;;;7.97;3.70;;;;;;;;;;5033466;28;20569;-69
2022/09/15 12:46:21;;;;;;;9.20;4.07;;;;;;;;;;5034644;28;20213;-69
2022/09/15 12:48:48;;;;;;;6.90;3.90;;;;;;;;;;5034503;28;20202;-69
2022/09/15 12:51:22;;;;;;;5.67;3.63;;;;;;;;;;5034158;28;20230;-69
2022/09/15 12:53:52;;;;;;;5.43;3.30;;;;;;;;;;5034419;28;20194;-69
2022/09/15 12:56:24;;;;;;;6.13;3.60;;;;;;;;;;5034576;28;20197;-69
2022/09/15 12:58:50;;;;;;;3.90;3.50;;;;;;;;;;5034193;28;20255;-69
2022/09/15 13:01:23;;;;;;;8.73;3.60;;;;;;;;;;5034194;28;20234;-69
2022/09/15 13:03:49;;;;;;;6.27;4.00;;;;;;;;;;5034706;28;20210;-70
2022/09/15 13:06:16;;;;;;;6.20;4.20;;;;;;;;;;5033931;28;20309;-69
2022/09/15 13:08:43;;;;;;;4.33;3.40;;;;;;;;;;5034019;28;20677;-69
2022/09/15 13:11:10;;;;;;;3.57;3.10;;;;;;;;;;5034269;28;20313;-69
2022/09/15 13:13:46;;;;;;;5.80;3.40;;;;;;;;;;5033787;28;20567;-69
2022/09/15 13:16:15;;;;;;;3.50;3.07;;;;;;;;;;5034056;28;20217;-69
2022/09/15 13:18:42;;;;;;;5.83;3.27;;;;;;;;;;5033598;28;20206;-69
2022/09/15 13:21:12;;;;;;;6.37;3.70;;;;;;;;;;5032329;28;20226;-69
2022/09/15 13:23:40;;;;;;;4.20;3.60;;;;;;;;;;5033724;28;20669;-69
2022/09/15 13:26:08;;;;;;;6.00;3.43;;;;;;;;;;5033796;28;20664;-69
2022/09/15 13:28:37;;;;;;;4.30;2.97;;;;;;;;;;5033284;28;20229;-69
2022/09/15 13:31:03;;;;;;;4.50;3.40;;;;;;;;;;5033598;28;20233;-70
2022/09/15 13:34:05;;;;;;;5.03;3.40;;;;;;;;;;5033898;28;20201;-69
2022/09/15 13:36:31;;;;;;;4.37;3.40;;;;;;;;;;4972760;28;20290;-70
2022/09/15 13:39:17;;;;;;;4.33;3.20;;;;;;;;;;5020953;28;20209;-69
2022/09/15 13:41:47;;;;;;;3.77;2.77;;;;;;;;;;5032316;28;20194;-69
2022/09/15 13:44:13;;;;;;;3.63;2.67;;;;;;;;;;5033585;28;20243;-69
2022/09/15 13:46:45;;;;;;;5.77;2.73;;;;;;;;;;5032953;28;20206;-69
2022/09/15 13:49:12;;;;;;;3.27;2.50;;;;;;;;;;5033307;28;20198;-69
2022/09/15 13:51:41;;;;;;;7.73;2.73;;;;;;;;;;5033170;28;20719;-69
2022/09/15 13:54:14;;;;;;;3.80;2.73;;;;;;;;;;5032869;28;20216;-69
2022/09/15 13:56:40;;;;;;;4.80;2.80;;;;;;;;;;5033637;28;20273;-69
2022/09/15 13:59:08;;;;;;;6.40;3.07;;;;;;;;;;5033025;28;20213;-70
2022/09/15 14:01:37;;;;;;;4.73;2.33;;;;;;;;;;5033710;28;20212;-70
2022/09/15 14:04:12;;;;;;;2.90;2.47;;;;;;;;;;5033375;28;20556;-70
2022/09/15 14:06:40;;;;;;;3.20;2.53;;;;;;;;;;5032036;28;20189;-70
2022/09/15 14:09:09;;;;;;;5.73;2.43;;;;;;;;;;5033312;28;20206;-70
2022/09/15 14:11:36;;;;;;;3.90;2.60;;;;;;;;;;5033073;28;20220;-70
2022/09/15 14:14:03;;;;;;;3.50;2.80;;;;;;;;;;5033003;28;20210;-70
2022/09/15 14:16:34;;;;;;;5.47;3.00;;;;;;;;;;5033150;28;20206;-71
2022/09/15 14:19:01;;;;;;;5.83;3.20;;;;;;;;;;5033120;28;20296;-70
2022/09/15 14:21:29;;;;;;;5.93;3.60;;;;;;;;;;5033138;28;20294;-70
2022/09/15 14:23:56;;;;;;;6.87;3.87;;;;;;;;;;5033052;28;20210;-70
2022/09/15 14:26:34;;;;;;;7.07;3.40;;;;;;;;;;5033223;28;20214;-71
2022/09/15 14:29:05;;;;;;;5.73;3.70;;;;;;;;;;5032755;28;20194;-70
2022/09/15 14:31:36;;;;;;;7.03;3.50;;;;;;;;;;5033126;28;20190;-70
2022/09/15 14:34:05;;;;;;;5.27;3.10;;;;;;;;;;5033062;28;20213;-70
2022/09/15 14:36:31;;;;;;;5.70;2.97;;;;;;;;;;5031571;28;20208;-70
2022/09/15 14:39:07;;;;;;;4.60;3.03;;;;;;;;;;5032710;28;20299;-70
2022/09/15 14:41:34;;;;;;;3.47;2.90;;;;;;;;;;5032668;28;20564;-71
2022/09/15 14:44:01;;;;;;;5.00;3.30;;;;;;;;;;5033015;28;20237;-70
2022/09/15 14:46:35;;;;;;;4.53;2.90;;;;;;;;;;5032933;28;20207;-71
2022/09/15 14:49:15;;;;;;;5.07;2.70;;;;;;;;;;5033140;28;20232;-71
2022/09/15 14:51:42;;;;;;;3.23;2.70;;;;;;;;;;5032723;28;20703;-71
2022/09/15 14:54:13;;;;;;;4.77;3.17;;;;;;;;;;5032892;28;20205;-70
2022/09/15 14:56:41;;;;;;;3.87;3.03;;;;;;;;;;5032973;28;20201;-71
2022/09/15 14:59:11;;;;;;;5.30;3.33;;;;;;;;;;5031249;28;20201;-70
2022/09/15 15:01:39;;;;;;;4.10;3.00;;;;;;;;;;5031093;28;20555;-71